sensor_id;sensor_type;location;lat;lon;timestamp;pressure;altitude;pressure_sealevel;temperature;humidity
71857;BME280;63344;46.980;28.882;2023-02-18T00:01:33;100667.63;;;2.74;72.58
71857;BME280;63344;46.980;28.882;2023-02-18T00:04:00;100664.97;;;2.78;72.92
71857;BME280;63344;46.980;28.882;2023-02-18T00:06:31;100662.34;;;2.77;72.65
71857;BME280;63344;46.980;28.882;2023-02-18T00:08:59;100659.72;;;2.75;72.84
71857;BME280;63344;46.980;28.882;2023-02-18T00:11:30;100647.50;;;2.74;72.94
71857;BME280;63344;46.980;28.882;2023-02-18T00:13:59;100649.22;;;2.82;73.84
71857;BME280;63344;46.980;28.882;2023-02-18T00:16:28;100639.50;;;2.94;73.66
71857;BME280;63344;46.980;28.882;2023-02-18T00:19:01;100636.78;;;3.08;73.59
71857;BME280;63344;46.980;28.882;2023-02-18T00:21:29;100627.13;;;3.10;73.40
71857;BME280;63344;46.980;28.882;2023-02-18T00:23:56;100636.66;;;3.21;73.31
71857;BME280;63344;46.980;28.882;2023-02-18T00:26:24;100627.94;;;3.22;72.67
71857;BME280;63344;46.980;28.882;2023-02-18T00:28:52;100618.31;;;3.19;72.91
71857;BME280;63344;46.980;28.882;2023-02-18T00:31:24;100620.94;;;3.21;72.29
71857;BME280;63344;46.980;28.882;2023-02-18T00:33:51;100620.06;;;3.18;72.97
71857;BME280;63344;46.980;28.882;2023-02-18T00:36:20;100622.66;;;3.23;72.94
71857;BME280;63344;46.980;28.882;2023-02-18T00:38:53;100610.38;;;3.25;73.38
71857;BME280;63344;46.980;28.882;2023-02-18T00:41:28;100614.66;;;3.37;73.64
71857;BME280;63344;46.980;28.882;2023-02-18T00:43:55;100616.28;;;3.47;73.56
71857;BME280;63344;46.980;28.882;2023-02-18T00:46:23;100602.38;;;3.39;73.32
71857;BME280;63344;46.980;28.882;2023-02-18T00:48:51;100610.19;;;3.45;73.45
71857;BME280;63344;46.980;28.882;2023-02-18T00:51:23;100610.13;;;3.51;73.41
71857;BME280;63344;46.980;28.882;2023-02-18T00:53:55;100612.72;;;3.54;73.34
71857;BME280;63344;46.980;28.882;2023-02-18T00:56:24;100604.84;;;3.54;73.59
71857;BME280;63344;46.980;28.882;2023-02-18T00:58:51;100603.09;;;3.56;73.40
71857;BME280;63344;46.980;28.882;2023-02-18T01:01:19;100594.38;;;3.51;73.99
71857;BME280;63344;46.980;28.882;2023-02-18T01:03:46;100583.91;;;3.50;74.40
71857;BME280;63344;46.980;28.882;2023-02-18T01:06:13;100581.22;;;3.56;74.41
71857;BME280;63344;46.980;28.882;2023-02-18T01:08:41;100591.56;;;3.70;75.05
71857;BME280;63344;46.980;28.882;2023-02-18T01:11:10;100590.69;;;3.69;75.20
71857;BME280;63344;46.980;28.882;2023-02-18T01:13:38;100586.25;;;3.73;75.08
71857;BME280;63344;46.980;28.882;2023-02-18T01:16:07;100576.66;;;3.72;75.23
71857;BME280;63344;46.980;28.882;2023-02-18T01:18:36;100576.59;;;3.78;75.76
71857;BME280;63344;46.980;28.882;2023-02-18T01:21:04;100567.78;;;3.84;76.42
71857;BME280;63344;46.980;28.882;2023-02-18T01:23:36;100559.00;;;3.85;76.44
71857;BME280;63344;46.980;28.882;2023-02-18T01:26:05;100564.28;;;3.82;77.18
71857;BME280;63344;46.980;28.882;2023-02-18T01:28:33;100565.09;;;3.85;77.35
71857;BME280;63344;46.980;28.882;2023-02-18T01:31:07;100544.94;;;3.87;77.80
71857;BME280;63344;46.980;28.882;2023-02-18T01:33:35;100542.28;;;3.90;77.81
71857;BME280;63344;46.980;28.882;2023-02-18T01:36:03;100530.09;;;3.85;77.96
71857;BME280;63344;46.980;28.882;2023-02-18T01:38:30;100525.66;;;3.90;78.42
71857;BME280;63344;46.980;28.882;2023-02-18T01:40:58;100525.69;;;3.88;78.82
71857;BME280;63344;46.980;28.882;2023-02-18T01:43:25;100507.28;;;3.87;79.21
71857;BME280;63344;46.980;28.882;2023-02-18T01:48:31;100515.16;;;3.88;79.03
71857;BME280;63344;46.980;28.882;2023-02-18T01:51:02;100508.16;;;3.87;79.33
71857;BME280;63344;46.980;28.882;2023-02-18T01:53:39;100502.97;;;3.84;79.77
71857;BME280;63344;46.980;28.882;2023-02-18T01:56:12;100506.38;;;3.91;79.94
71857;BME280;63344;46.980;28.882;2023-02-18T01:58:41;100489.78;;;3.87;79.58
71857;BME280;63344;46.980;28.882;2023-02-18T02:01:09;100490.59;;;3.92;79.89
71857;BME280;63344;46.980;28.882;2023-02-18T02:03:36;100500.19;;;3.93;79.78
71857;BME280;63344;46.980;28.882;2023-02-18T02:06:16;100493.13;;;3.98;79.75
71857;BME280;63344;46.980;28.882;2023-02-18T02:08:46;100476.53;;;3.96;79.38
71857;BME280;63344;46.980;28.882;2023-02-18T02:13:59;100487.59;;;4.18;77.90
71857;BME280;63344;46.980;28.882;2023-02-18T02:23:26;100480.31;;;4.37;77.38
71857;BME280;63344;46.980;28.882;2023-02-18T02:39:25;100474.03;;;4.45;79.09
71857;BME280;63344;46.980;28.882;2023-02-18T02:45:01;100464.53;;;4.36;79.70
71857;BME280;63344;46.980;28.882;2023-02-18T02:47:43;100467.16;;;4.37;80.00
71857;BME280;63344;46.980;28.882;2023-02-18T02:50:16;100468.88;;;4.38;79.95
71857;BME280;63344;46.980;28.882;2023-02-18T02:52:51;100460.13;;;4.38;79.91
71857;BME280;63344;46.980;28.882;2023-02-18T02:55:21;100451.41;;;4.34;80.20
71857;BME280;63344;46.980;28.882;2023-02-18T02:57:51;100448.81;;;4.33;80.51
71857;BME280;63344;46.980;28.882;2023-02-18T03:00:22;100458.44;;;4.35;81.01
71857;BME280;63344;46.980;28.882;2023-02-18T03:03:16;100458.47;;;4.32;81.58
71857;BME280;63344;46.980;28.882;2023-02-18T03:05:53;100454.09;;;4.31;81.88
71857;BME280;63344;46.980;28.882;2023-02-18T03:08:38;100449.72;;;4.30;82.34
71857;BME280;63344;46.980;28.882;2023-02-18T03:11:11;100457.66;;;4.27;82.64
71857;BME280;63344;46.980;28.882;2023-02-18T03:18:39;100450.69;;;4.25;83.69
71857;BME280;63344;46.980;28.882;2023-02-18T03:23:38;100433.22;;;4.22;84.32
71857;BME280;63344;46.980;28.882;2023-02-18T03:26:09;100420.16;;;4.17;84.89
71857;BME280;63344;46.980;28.882;2023-02-18T03:28:37;100411.38;;;4.17;85.27
71857;BME280;63344;46.980;28.882;2023-02-18T03:31:08;100421.00;;;4.19;85.25
71857;BME280;63344;46.980;28.882;2023-02-18T03:33:41;100419.31;;;4.15;85.68
71857;BME280;63344;46.980;28.882;2023-02-18T03:36:11;100421.91;;;4.17;85.95
71857;BME280;63344;46.980;28.882;2023-02-18T03:38:45;100408.75;;;4.17;86.13
71857;BME280;63344;46.980;28.882;2023-02-18T03:41:16;100414.91;;;4.16;86.46
71857;BME280;63344;46.980;28.882;2023-02-18T03:43:52;100412.22;;;4.21;86.36
71857;BME280;63344;46.980;28.882;2023-02-18T03:46:21;100419.22;;;4.22;86.94
71857;BME280;63344;46.980;28.882;2023-02-18T03:48:48;100394.63;;;4.24;86.98
71857;BME280;63344;46.980;28.882;2023-02-18T03:51:16;100396.31;;;4.30;86.78
71857;BME280;63344;46.980;28.882;2023-02-18T03:53:43;100401.56;;;4.30;87.03
71857;BME280;63344;46.980;28.882;2023-02-18T03:56:10;100396.22;;;4.34;86.74
71857;BME280;63344;46.980;28.882;2023-02-18T03:58:38;100405.84;;;4.35;86.93
71857;BME280;63344;46.980;28.882;2023-02-18T04:01:05;100410.09;;;4.41;87.05
71857;BME280;63344;46.980;28.882;2023-02-18T04:03:33;100396.94;;;4.43;86.74
71857;BME280;63344;46.980;28.882;2023-02-18T04:06:00;100402.94;;;4.51;86.21
71857;BME280;63344;46.980;28.882;2023-02-18T04:08:27;100391.56;;;4.49;86.55
71857;BME280;63344;46.980;28.882;2023-02-18T04:10:55;100389.75;;;4.54;86.75
71857;BME280;63344;46.980;28.882;2023-02-18T04:13:22;100389.66;;;4.57;86.56
71857;BME280;63344;46.980;28.882;2023-02-18T04:15:51;100380.94;;;4.56;86.40
71857;BME280;63344;46.980;28.882;2023-02-18T04:18:18;100377.44;;;4.56;86.17
71857;BME280;63344;46.980;28.882;2023-02-18T04:20:45;100374.81;;;4.56;86.68
71857;BME280;63344;46.980;28.882;2023-02-18T04:23:12;100373.03;;;4.56;86.61
71857;BME280;63344;46.980;28.882;2023-02-18T04:25:40;100366.00;;;4.57;86.48
71857;BME280;63344;46.980;28.882;2023-02-18T04:28:09;100367.88;;;4.50;86.44
71857;BME280;63344;46.980;28.882;2023-02-18T04:30:41;100352.22;;;4.44;86.49
71857;BME280;63344;46.980;28.882;2023-02-18T04:33:09;100368.88;;;4.45;86.99
71857;BME280;63344;46.980;28.882;2023-02-18T04:35:36;100357.50;;;4.43;87.24
71857;BME280;63344;46.980;28.882;2023-02-18T04:38:08;100375.03;;;4.44;86.90
71857;BME280;63344;46.980;28.882;2023-02-18T04:40:39;100357.50;;;4.43;87.59
71857;BME280;63344;46.980;28.882;2023-02-18T04:43:06;100352.22;;;4.44;87.44
71857;BME280;63344;46.980;28.882;2023-02-18T04:45:34;100360.03;;;4.49;87.57
71857;BME280;63344;46.980;28.882;2023-02-18T04:48:01;100351.31;;;4.45;87.64
71857;BME280;63344;46.980;28.882;2023-02-18T04:50:29;100336.38;;;4.47;87.92
71857;BME280;63344;46.980;28.882;2023-02-18T04:52:57;100334.63;;;4.48;87.88
71857;BME280;63344;46.980;28.882;2023-02-18T04:55:25;100311.09;;;4.42;88.05
71857;BME280;63344;46.980;28.882;2023-02-18T04:57:52;100311.94;;;4.44;87.58
71857;BME280;63344;46.980;28.882;2023-02-18T05:00:20;100305.66;;;4.49;88.06
71857;BME280;63344;46.980;28.882;2023-02-18T05:02:47;100303.09;;;4.48;88.26
71857;BME280;63344;46.980;28.882;2023-02-18T05:05:15;100316.13;;;4.54;87.70
71857;BME280;63344;46.980;28.882;2023-02-18T05:07:44;100303.00;;;4.52;87.78
71857;BME280;63344;46.980;28.882;2023-02-18T05:10:16;100309.91;;;4.56;88.15
71857;BME280;63344;46.980;28.882;2023-02-18T05:12:45;100318.59;;;4.62;88.14
71857;BME280;63344;46.980;28.882;2023-02-18T05:15:14;100318.53;;;4.65;87.70
71857;BME280;63344;46.980;28.882;2023-02-18T05:17:51;100327.22;;;4.70;87.51
71857;BME280;63344;46.980;28.882;2023-02-18T05:20:21;100326.97;;;4.81;87.29
71857;BME280;63344;46.980;28.882;2023-02-18T05:22:54;100318.91;;;4.90;86.82
71857;BME280;63344;46.980;28.882;2023-02-18T05:25:25;100320.63;;;4.91;86.83
71857;BME280;63344;46.980;28.882;2023-02-18T05:27:52;100309.06;;;4.99;86.17
71857;BME280;63344;46.980;28.882;2023-02-18T05:30:20;100334.19;;;5.14;85.75
71857;BME280;63344;46.980;28.882;2023-02-18T05:32:47;100322.63;;;5.22;85.65
71857;BME280;63344;46.980;28.882;2023-02-18T05:35:26;100320.84;;;5.24;84.99
71857;BME280;63344;46.980;28.882;2023-02-18T05:37:53;100311.97;;;5.28;84.95
71857;BME280;63344;46.980;28.882;2023-02-18T05:40:20;100288.16;;;5.32;84.95
71857;BME280;63344;46.980;28.882;2023-02-18T05:42:47;100302.84;;;5.43;84.60
71857;BME280;63344;46.980;28.882;2023-02-18T05:45:15;100300.22;;;5.43;84.58
71857;BME280;63344;46.980;28.882;2023-02-18T05:47:42;100306.25;;;5.48;84.10
71857;BME280;63344;46.980;28.882;2023-02-18T05:50:10;100292.00;;;5.56;83.95
71857;BME280;63344;46.980;28.882;2023-02-18T05:52:37;100281.28;;;5.64;83.78
71857;BME280;63344;46.980;28.882;2023-02-18T05:55:05;100287.34;;;5.68;83.51
71857;BME280;63344;46.980;28.882;2023-02-18T05:57:33;100259.09;;;5.73;83.27
71857;BME280;63344;46.980;28.882;2023-02-18T06:00:05;100280.84;;;5.81;83.22
71857;BME280;63344;46.980;28.882;2023-02-18T06:02:33;100262.28;;;5.87;82.78
71857;BME280;63344;46.980;28.882;2023-02-18T06:05:06;100267.38;;;5.93;82.20
71857;BME280;63344;46.980;28.882;2023-02-18T06:07:34;100258.41;;;6.02;81.76
71857;BME280;63344;46.980;28.882;2023-02-18T06:10:02;100270.56;;;6.08;81.33
71857;BME280;63344;46.980;28.882;2023-02-18T06:12:38;100268.56;;;6.17;81.11
71857;BME280;63344;46.980;28.882;2023-02-18T06:15:06;100278.91;;;6.25;80.80
71857;BME280;63344;46.980;28.882;2023-02-18T06:17:34;100274.34;;;6.30;80.57
71857;BME280;63344;46.980;28.882;2023-02-18T06:20:02;100256.75;;;6.31;80.17
71857;BME280;63344;46.980;28.882;2023-02-18T06:22:29;100263.59;;;6.38;79.77
71857;BME280;63344;46.980;28.882;2023-02-18T06:24:56;100263.44;;;6.44;79.54
71857;BME280;63344;46.980;28.882;2023-02-18T06:27:23;100271.03;;;6.55;79.37
71857;BME280;63344;46.980;28.882;2023-02-18T06:29:55;100267.31;;;6.62;79.21
71857;BME280;63344;46.980;28.882;2023-02-18T06:32:23;100270.56;;;6.72;78.84
71857;BME280;63344;46.980;28.882;2023-02-18T06:34:52;100275.59;;;6.81;77.97
71857;BME280;63344;46.980;28.882;2023-02-18T06:37:23;100251.78;;;6.83;77.89
71857;BME280;63344;46.980;28.882;2023-02-18T06:39:57;100270.78;;;6.95;77.60
71857;BME280;63344;46.980;28.882;2023-02-18T06:42:26;100260.69;;;7.08;77.35
71857;BME280;63344;46.980;28.882;2023-02-18T06:44:55;100271.06;;;7.14;77.02
71857;BME280;63344;46.980;28.882;2023-02-18T06:47:31;100259.47;;;7.20;76.82
71857;BME280;63344;46.980;28.882;2023-02-18T06:50:00;100257.63;;;7.22;76.42
71857;BME280;63344;46.980;28.882;2023-02-18T06:52:29;100273.09;;;7.34;76.06
71857;BME280;63344;46.980;28.882;2023-02-18T06:55:11;100254.38;;;7.42;76.03
71857;BME280;63344;46.980;28.882;2023-02-18T06:57:41;100247.06;;;7.50;75.32
71857;BME280;63344;46.980;28.882;2023-02-18T07:00:09;100244.28;;;7.55;75.28
71857;BME280;63344;46.980;28.882;2023-02-18T07:02:36;100237.88;;;7.62;74.30
71857;BME280;63344;46.980;28.882;2023-02-18T07:05:04;100230.59;;;7.69;73.66
71857;BME280;63344;46.980;28.882;2023-02-18T07:07:53;100250.59;;;7.77;73.27
71857;BME280;63344;46.980;28.882;2023-02-18T07:10:38;100235.38;;;7.84;72.83
71857;BME280;63344;46.980;28.882;2023-02-18T07:13:06;100246.66;;;7.89;73.00
71857;BME280;63344;46.980;28.882;2023-02-18T07:15:36;100248.97;;;7.98;72.89
71857;BME280;63344;46.980;28.882;2023-02-18T07:18:04;100251.38;;;8.06;72.25
71857;BME280;63344;46.980;28.882;2023-02-18T07:20:31;100244.09;;;8.13;71.77
71857;BME280;63344;46.980;28.882;2023-02-18T07:22:58;100258.16;;;8.15;72.08
71857;BME280;63344;46.980;28.882;2023-02-18T07:25:26;100249.19;;;8.19;71.72
71857;BME280;63344;46.980;28.882;2023-02-18T07:27:53;100258.47;;;8.31;70.63
71857;BME280;63344;46.980;28.882;2023-02-18T07:30:21;100275.78;;;8.40;70.75
71857;BME280;63344;46.980;28.882;2023-02-18T07:32:48;100278.16;;;8.49;70.38
71857;BME280;63344;46.980;28.882;2023-02-18T07:35:17;100269.88;;;8.58;70.31
71857;BME280;63344;46.980;28.882;2023-02-18T07:37:48;100284.47;;;8.68;69.49
71857;BME280;63344;46.980;28.882;2023-02-18T07:40:18;100286.81;;;8.77;69.29
71857;BME280;63344;46.980;28.882;2023-02-18T07:42:46;100282.13;;;8.84;68.89
71857;BME280;63344;46.980;28.882;2023-02-18T07:45:17;100282.66;;;8.94;68.25
71857;BME280;63344;46.980;28.882;2023-02-18T07:47:45;100277.03;;;9.03;68.10
71857;BME280;63344;46.980;28.882;2023-02-18T07:50:13;100272.97;;;9.16;67.60
71857;BME280;63344;46.980;28.882;2023-02-18T07:52:40;100271.31;;;9.14;67.83
71857;BME280;63344;46.980;28.882;2023-02-18T07:55:08;100272.63;;;9.26;67.57
71857;BME280;63344;46.980;28.882;2023-02-18T07:57:36;100262.78;;;9.29;67.38
71857;BME280;63344;46.980;28.882;2023-02-18T08:00:23;100248.22;;;9.40;67.19
71857;BME280;63344;46.980;28.882;2023-02-18T08:02:51;100248.84;;;9.46;66.96
71857;BME280;63344;46.980;28.882;2023-02-18T08:05:19;100237.88;;;9.55;66.74
71857;BME280;63344;46.980;28.882;2023-02-18T08:07:49;100240.81;;;9.70;66.70
71857;BME280;63344;46.980;28.882;2023-02-18T08:10:22;100246.66;;;9.78;65.92
71857;BME280;63344;46.980;28.882;2023-02-18T08:12:52;100254.78;;;9.95;65.97
71857;BME280;63344;46.980;28.882;2023-02-18T08:15:21;100237.69;;;10.03;65.23
71857;BME280;63344;46.980;28.882;2023-02-18T08:17:48;100230.16;;;10.12;65.00
71857;BME280;63344;46.980;28.882;2023-02-18T08:20:27;100243.78;;;10.25;64.41
71857;BME280;63344;46.980;28.882;2023-02-18T08:23:04;100227.41;;;10.36;64.51
71857;BME280;63344;46.980;28.882;2023-02-18T08:25:33;100227.56;;;10.33;63.48
71857;BME280;63344;46.980;28.882;2023-02-18T08:28:01;100218.94;;;10.26;63.68
71857;BME280;63344;46.980;28.882;2023-02-18T08:30:30;100213.13;;;10.18;64.06
71857;BME280;63344;46.980;28.882;2023-02-18T08:33:05;100198.41;;;10.11;64.29
71857;BME280;63344;46.980;28.882;2023-02-18T08:35:33;100218.91;;;10.07;64.36
71857;BME280;63344;46.980;28.882;2023-02-18T08:38:06;100220.28;;;10.16;64.48
71857;BME280;63344;46.980;28.882;2023-02-18T08:40:34;100207.63;;;10.23;63.81
71857;BME280;63344;46.980;28.882;2023-02-18T08:43:16;100191.69;;;10.43;63.25
71857;BME280;63344;46.980;28.882;2023-02-18T08:45:45;100203.56;;;10.55;63.10
71857;BME280;63344;46.980;28.882;2023-02-18T08:48:14;100213.41;;;10.72;62.54
71857;BME280;63344;46.980;28.882;2023-02-18T08:50:47;100211.91;;;10.85;62.13
71857;BME280;63344;46.980;28.882;2023-02-18T08:53:16;100220.88;;;11.02;61.10
71857;BME280;63344;46.980;28.882;2023-02-18T08:55:47;100212.13;;;11.19;61.28
71857;BME280;63344;46.980;28.882;2023-02-18T08:58:16;100219.81;;;11.42;60.24
71857;BME280;63344;46.980;28.882;2023-02-18T09:00:44;100211.94;;;11.58;59.99
71857;BME280;63344;46.980;28.882;2023-02-18T09:03:15;100213.31;;;11.84;59.58
71857;BME280;63344;46.980;28.882;2023-02-18T09:06:10;100228.38;;;12.03;58.85
71857;BME280;63344;46.980;28.882;2023-02-18T09:09:09;100223.59;;;12.09;58.20
71857;BME280;63344;46.980;28.882;2023-02-18T09:11:56;100225.44;;;12.42;57.07
71857;BME280;63344;46.980;28.882;2023-02-18T09:14:26;100224.75;;;13.67;55.31
71857;BME280;63344;46.980;28.882;2023-02-18T09:17:12;100224.41;;;15.33;51.17
71857;BME280;63344;46.980;28.882;2023-02-18T09:19:39;100217.19;;;16.15;48.21
71857;BME280;63344;46.980;28.882;2023-02-18T09:22:10;100227.41;;;16.87;46.36
71857;BME280;63344;46.980;28.882;2023-02-18T09:24:45;100222.13;;;16.85;44.98
71857;BME280;63344;46.980;28.882;2023-02-18T09:27:14;100223.31;;;16.43;45.72
71857;BME280;63344;46.980;28.882;2023-02-18T09:29:46;100218.13;;;15.34;46.66
71857;BME280;63344;46.980;28.882;2023-02-18T09:32:20;100218.59;;;14.70;48.14
71857;BME280;63344;46.980;28.882;2023-02-18T09:35:23;100223.78;;;14.29;49.61
71857;BME280;63344;46.980;28.882;2023-02-18T09:38:07;100189.97;;;13.99;50.46
71857;BME280;63344;46.980;28.882;2023-02-18T09:40:46;100225.53;;;13.69;50.77
71857;BME280;63344;46.980;28.882;2023-02-18T09:44:26;100211.44;;;15.27;48.87
71857;BME280;63344;46.980;28.882;2023-02-18T09:47:12;100222.69;;;16.39;46.34
71857;BME280;63344;46.980;28.882;2023-02-18T09:49:50;100212.53;;;15.91;45.98
71857;BME280;63344;46.980;28.882;2023-02-18T09:52:26;100195.47;;;14.55;48.14
71857;BME280;63344;46.980;28.882;2023-02-18T09:54:58;100206.56;;;13.90;50.04
71857;BME280;63344;46.980;28.882;2023-02-18T09:57:46;100207.22;;;14.38;50.81
71857;BME280;63344;46.980;28.882;2023-02-18T10:00:24;100179.78;;;15.61;47.40
71857;BME280;63344;46.980;28.882;2023-02-18T10:03:04;100198.13;;;17.21;44.52
71857;BME280;63344;46.980;28.882;2023-02-18T10:05:35;100208.03;;;17.68;42.87
71857;BME280;63344;46.980;28.882;2023-02-18T10:08:06;100202.50;;;18.41;41.99
71857;BME280;63344;46.980;28.882;2023-02-18T10:10:44;100196.78;;;18.68;40.70
71857;BME280;63344;46.980;28.882;2023-02-18T10:13:19;100208.94;;;17.32;42.00
71857;BME280;63344;46.980;28.882;2023-02-18T10:15:48;100203.47;;;16.71;43.52
71857;BME280;63344;46.980;28.882;2023-02-18T10:20:50;100201.00;;;16.81;44.00
71857;BME280;63344;46.980;28.882;2023-02-18T10:23:20;100206.94;;;16.86;44.20
71857;BME280;63344;46.980;28.882;2023-02-18T10:25:50;100189.75;;;17.74;41.43
71857;BME280;63344;46.980;28.882;2023-02-18T10:28:21;100198.41;;;17.53;42.29
71857;BME280;63344;46.980;28.882;2023-02-18T10:30:58;100180.22;;;17.81;41.11
71857;BME280;63344;46.980;28.882;2023-02-18T10:33:34;100186.84;;;17.28;41.55
71857;BME280;63344;46.980;28.882;2023-02-18T10:36:27;100189.66;;;16.90;43.31
71857;BME280;63344;46.980;28.882;2023-02-18T10:47:24;100201.56;;;16.47;44.01
71857;BME280;63344;46.980;28.882;2023-02-18T10:52:40;100188.13;;;17.23;43.40
71857;BME280;63344;46.980;28.882;2023-02-18T10:55:12;100194.81;;;17.41;43.29
71857;BME280;63344;46.980;28.882;2023-02-18T10:57:46;100200.63;;;17.48;42.36
71857;BME280;63344;46.980;28.882;2023-02-18T11:00:21;100210.88;;;16.93;43.63
71857;BME280;63344;46.980;28.882;2023-02-18T11:03:23;100191.25;;;16.03;45.21
71857;BME280;63344;46.980;28.882;2023-02-18T11:05:54;100192.00;;;16.43;45.89
71857;BME280;63344;46.980;28.882;2023-02-18T11:08:25;100195.63;;;17.55;43.60
71857;BME280;63344;46.980;28.882;2023-02-18T11:10:55;100177.63;;;18.95;40.60
71857;BME280;63344;46.980;28.882;2023-02-18T11:13:27;100186.41;;;19.52;39.63
71857;BME280;63344;46.980;28.882;2023-02-18T11:16:00;100182.25;;;19.48;38.83
71857;BME280;63344;46.980;28.882;2023-02-18T11:18:35;100186.66;;;18.94;40.22
71857;BME280;63344;46.980;28.882;2023-02-18T11:23:55;100172.69;;;19.12;39.79
71857;BME280;63344;46.980;28.882;2023-02-18T11:26:31;100174.47;;;17.74;41.06
71857;BME280;63344;46.980;28.882;2023-02-18T11:29:03;100195.22;;;16.87;43.65
71857;BME280;63344;46.980;28.882;2023-02-18T11:31:46;100181.19;;;17.44;43.33
71857;BME280;63344;46.980;28.882;2023-02-18T11:34:28;100172.00;;;17.36;43.49
71857;BME280;63344;46.980;28.882;2023-02-18T11:37:17;100165.28;;;17.65;42.45
71857;BME280;63344;46.980;28.882;2023-02-18T11:39:49;100162.50;;;18.02;42.23
71857;BME280;63344;46.980;28.882;2023-02-18T11:42:22;100140.25;;;17.29;42.94
71857;BME280;63344;46.980;28.882;2023-02-18T11:45:03;100145.25;;;17.34;43.16
71857;BME280;63344;46.980;28.882;2023-02-18T11:47:43;100157.94;;;17.08;42.41
71857;BME280;63344;46.980;28.882;2023-02-18T11:50:19;100154.31;;;16.33;43.92
71857;BME280;63344;46.980;28.882;2023-02-18T11:52:49;100147.44;;;16.42;44.80
71857;BME280;63344;46.980;28.882;2023-02-18T11:55:22;100140.84;;;17.33;42.26
71857;BME280;63344;46.980;28.882;2023-02-18T11:58:05;100136.69;;;16.29;44.08
71857;BME280;63344;46.980;28.882;2023-02-18T12:00:46;100134.22;;;16.39;44.54
71857;BME280;63344;46.980;28.882;2023-02-18T12:06:32;100129.34;;;15.54;45.88
71857;BME280;63344;46.980;28.882;2023-02-18T12:11:57;100130.31;;;15.26;46.17
71857;BME280;63344;46.980;28.882;2023-02-18T12:14:28;100126.22;;;14.93;45.34
71857;BME280;63344;46.980;28.882;2023-02-18T12:25:23;100135.91;;;14.67;45.18
71857;BME280;63344;46.980;28.882;2023-02-18T12:31:11;100128.28;;;14.32;45.83
71857;BME280;63344;46.980;28.882;2023-02-18T12:36:42;100131.59;;;17.37;40.26
71857;BME280;63344;46.980;28.882;2023-02-18T12:55:25;100134.44;;;19.29;31.40
71857;BME280;63344;46.980;28.882;2023-02-18T13:07:00;100109.00;;;18.44;28.09
71857;BME280;63344;46.980;28.882;2023-02-18T13:12:41;100116.28;;;17.50;27.05
71857;BME280;63344;46.980;28.882;2023-02-18T13:15:15;100118.91;;;17.39;26.57
71857;BME280;63344;46.980;28.882;2023-02-18T13:17:50;100113.25;;;16.83;27.60
71857;BME280;63344;46.980;28.882;2023-02-18T13:20:22;100131.22;;;16.31;28.80
71857;BME280;63344;46.980;28.882;2023-02-18T13:22:52;100109.31;;;16.63;27.38
71857;BME280;63344;46.980;28.882;2023-02-18T13:25:20;100111.09;;;16.75;27.61
71857;BME280;63344;46.980;28.882;2023-02-18T13:28:12;100107.72;;;17.21;27.24
71857;BME280;63344;46.980;28.882;2023-02-18T13:31:24;100121.56;;;17.87;26.74
71857;BME280;63344;46.980;28.882;2023-02-18T13:37:06;100129.13;;;17.94;25.69
71857;BME280;63344;46.980;28.882;2023-02-18T13:40:01;100126.38;;;17.11;25.74
71857;BME280;63344;46.980;28.882;2023-02-18T13:45:04;100139.63;;;15.61;27.86
71857;BME280;63344;46.980;28.882;2023-02-18T13:50:32;100129.25;;;14.60;29.30
71857;BME280;63344;46.980;28.882;2023-02-18T13:55:51;100141.75;;;14.60;29.31
71857;BME280;63344;46.980;28.882;2023-02-18T13:58:35;100138.94;;;15.17;28.65
71857;BME280;63344;46.980;28.882;2023-02-18T14:06:39;100149.78;;;14.74;28.76
71857;BME280;63344;46.980;28.882;2023-02-18T14:14:33;100147.63;;;14.22;30.21
71857;BME280;63344;46.980;28.882;2023-02-18T14:22:32;100133.44;;;14.07;30.47
71857;BME280;63344;46.980;28.882;2023-02-18T14:27:41;100119.13;;;14.22;30.12
71857;BME280;63344;46.980;28.882;2023-02-18T14:32:51;100128.00;;;14.08;30.63
71857;BME280;63344;46.980;28.882;2023-02-18T14:47:09;100131.34;;;13.37;31.09
71857;BME280;63344;46.980;28.882;2023-02-18T14:49:47;100122.31;;;13.24;31.38
71857;BME280;63344;46.980;28.882;2023-02-18T14:55:02;100123.44;;;13.04;31.91
71857;BME280;63344;46.980;28.882;2023-02-18T14:57:50;100133.47;;;13.00;31.99
71857;BME280;63344;46.980;28.882;2023-02-18T15:00:23;100126.91;;;12.90;32.14
71857;BME280;63344;46.980;28.882;2023-02-18T15:02:53;100121.91;;;12.84;32.52
71857;BME280;63344;46.980;28.882;2023-02-18T15:05:36;100115.31;;;12.75;32.91
71857;BME280;63344;46.980;28.882;2023-02-18T15:08:14;100114.81;;;12.68;33.39
71857;BME280;63344;46.980;28.882;2023-02-18T15:10:53;100111.88;;;12.57;33.26
71857;BME280;63344;46.980;28.882;2023-02-18T15:13:28;100111.16;;;12.53;33.36
71857;BME280;63344;46.980;28.882;2023-02-18T15:16:04;100123.03;;;12.48;33.59
71857;BME280;63344;46.980;28.882;2023-02-18T15:18:43;100108.69;;;12.34;33.47
71857;BME280;63344;46.980;28.882;2023-02-18T15:21:31;100111.81;;;12.25;34.03
71857;BME280;63344;46.980;28.882;2023-02-18T15:27:10;100114.16;;;11.98;34.31
71857;BME280;63344;46.980;28.882;2023-02-18T15:29:42;100114.69;;;11.87;34.61
71857;BME280;63344;46.980;28.882;2023-02-18T15:32:33;100128.31;;;11.81;34.94
71857;BME280;63344;46.980;28.882;2023-02-18T15:35:11;100124.41;;;11.71;35.24
71857;BME280;63344;46.980;28.882;2023-02-18T15:37:51;100121.38;;;11.61;34.69
71857;BME280;63344;46.980;28.882;2023-02-18T15:40:37;100124.03;;;11.61;34.99
71857;BME280;63344;46.980;28.882;2023-02-18T15:43:07;100119.28;;;11.50;35.20
71857;BME280;63344;46.980;28.882;2023-02-18T15:45:46;100123.09;;;11.45;35.64